createdAt,value
2017-08-18T00:00:51.952Z,0
2017-08-18T00:01:51.945Z,0
2017-08-18T00:02:51.939Z,0
2017-08-18T00:03:51.625Z,0
2017-08-18T00:04:51.920Z,0
2017-08-18T00:05:51.913Z,0
2017-08-18T00:06:51.605Z,0
2017-08-18T00:07:51.896Z,0
2017-08-18T00:08:51.892Z,0
2017-08-18T00:09:51.883Z,0
2017-08-18T00:10:51.573Z,0
2017-08-18T00:11:51.875Z,0
2017-08-18T00:12:51.565Z,0
2017-08-18T00:13:51.857Z,0
2017-08-18T00:14:51.552Z,0
2017-08-18T00:15:51.243Z,0
2017-08-18T00:16:51.238Z,0
2017-08-18T00:17:51.828Z,0
2017-08-18T00:18:51.815Z,0
2017-08-18T00:19:51.813Z,0
2017-08-18T00:20:51.799Z,0
2017-08-18T00:21:51.800Z,0
2017-08-18T00:22:51.776Z,0
2017-08-18T00:23:51.475Z,0
2017-08-18T00:24:51.783Z,0
2017-08-18T00:25:51.461Z,0
2017-08-18T00:26:51.748Z,0
2017-08-18T00:27:51.438Z,0
2017-08-18T00:28:51.442Z,0
2017-08-18T00:29:51.422Z,0
2017-08-18T00:30:51.733Z,0
2017-08-18T00:31:51.429Z,0
2017-08-18T00:32:51.394Z,0
2017-08-18T00:33:51.704Z,0
2017-08-18T00:34:51.381Z,0
2017-08-18T00:35:51.380Z,0
2017-08-18T00:36:51.688Z,0
2017-08-18T00:37:51.669Z,0
2017-08-18T00:38:51.374Z,0
2017-08-18T00:39:51.347Z,0
2017-08-18T00:40:51.679Z,0
2017-08-18T00:41:51.345Z,0
2017-08-18T00:42:51.329Z,0
2017-08-18T00:43:51.639Z,0
2017-08-18T00:44:51.016Z,0
2017-08-18T00:45:51.011Z,0
2017-08-18T00:46:51.621Z,0
2017-08-18T00:47:51.605Z,0
2017-08-18T00:48:51.602Z,0
2017-08-18T00:49:51.599Z,0
2017-08-18T00:50:51.585Z,0
2017-08-18T00:51:51.281Z,0
2017-08-18T00:52:51.560Z,0
2017-08-18T00:53:51.554Z,0
2017-08-18T00:54:51.561Z,0
2017-08-18T00:55:51.545Z,0
2017-08-18T00:56:51.535Z,0
2017-08-18T00:57:51.536Z,0
2017-08-18T00:58:51.529Z,0
2017-08-18T00:59:51.216Z,0
2017-08-18T01:00:51.504Z,0
2017-08-18T01:01:51.488Z,0
2017-08-18T01:02:51.498Z,0
2017-08-18T01:03:51.491Z,0
2017-08-18T01:04:51.468Z,0
2017-08-18T01:05:51.457Z,0
2017-08-18T01:06:51.461Z,0
2017-08-18T01:07:51.153Z,0
2017-08-18T01:08:51.454Z,0
2017-08-18T01:09:51.434Z,0
2017-08-18T01:10:50.838Z,0
2017-08-18T01:11:51.436Z,0
2017-08-18T01:12:51.428Z,0
2017-08-18T01:13:51.416Z,0
2017-08-18T01:14:51.407Z,0
2017-08-18T01:15:51.405Z,0
2017-08-18T01:16:51.078Z,0
2017-08-18T01:17:51.377Z,0
2017-08-18T01:18:51.385Z,0
2017-08-18T01:19:51.386Z,0
2017-08-18T01:20:50.753Z,0
2017-08-18T01:21:51.360Z,0
2017-08-18T01:22:51.353Z,0
2017-08-18T01:23:51.040Z,0
2017-08-18T01:24:51.339Z,0
2017-08-18T01:25:51.024Z,0
2017-08-18T01:26:51.322Z,0
2017-08-18T01:27:51.007Z,0
2017-08-18T01:28:51.293Z,0
2017-08-18T01:29:50.992Z,0
2017-08-18T01:30:50.981Z,0
2017-08-18T01:31:51.285Z,0
2017-08-18T01:32:51.263Z,0
2017-08-18T01:33:51.270Z,0
2017-08-18T01:34:50.966Z,0
2017-08-18T01:35:50.945Z,0
2017-08-18T01:36:51.237Z,0
2017-08-18T01:37:50.917Z,0
2017-08-18T01:38:50.921Z,0
2017-08-18T01:39:50.922Z,0
2017-08-18T01:40:50.913Z,0
2017-08-18T01:41:51.210Z,0
2017-08-18T01:42:50.613Z,0
2017-08-18T01:43:51.181Z,0
2017-08-18T01:44:51.180Z,0
2017-08-18T01:45:51.168Z,0
2017-08-18T01:46:51.160Z,0
2017-08-18T01:47:51.153Z,0
2017-08-18T01:48:51.148Z,0
2017-08-18T01:49:51.156Z,0
2017-08-18T01:50:50.823Z,0
2017-08-18T01:51:51.140Z,0
2017-08-18T01:52:50.818Z,0
2017-08-18T01:53:50.804Z,0
2017-08-18T01:54:50.811Z,0
2017-08-18T01:55:50.799Z,0
2017-08-18T01:56:51.103Z,0
2017-08-18T01:57:51.091Z,0
2017-08-18T01:58:51.083Z,0
2017-08-18T01:59:50.770Z,0
2017-08-18T02:00:51.073Z,0
2017-08-18T02:01:51.056Z,0
2017-08-18T02:02:51.056Z,0
2017-08-18T02:03:50.749Z,0
2017-08-18T02:04:50.723Z,0
2017-08-18T02:05:51.024Z,0
2017-08-18T02:06:51.028Z,0
2017-08-18T02:07:51.013Z,0
2017-08-18T02:08:51.004Z,0
2017-08-18T02:09:50.990Z,0
2017-08-18T02:10:50.982Z,0
2017-08-18T02:11:50.978Z,0
2017-08-18T02:12:50.673Z,0
2017-08-18T02:13:50.957Z,0
2017-08-18T02:14:50.948Z,0
2017-08-18T02:15:50.956Z,0
2017-08-18T02:16:50.929Z,0
2017-08-18T02:17:50.940Z,0
2017-08-18T02:18:50.918Z,0
2017-08-18T02:19:50.914Z,0
2017-08-18T02:20:50.918Z,0
2017-08-18T02:21:50.592Z,0
2017-08-18T02:22:50.885Z,0
2017-08-18T02:23:50.573Z,0
2017-08-18T02:24:50.881Z,0
2017-08-18T02:25:50.867Z,0
2017-08-18T02:26:50.855Z,0
2017-08-18T02:27:50.856Z,0
2017-08-18T02:28:50.841Z,0
2017-08-18T02:29:50.834Z,0
2017-08-18T02:30:50.823Z,0
2017-08-18T02:31:50.518Z,0
2017-08-18T02:32:50.824Z,0
2017-08-18T02:33:50.800Z,0
2017-08-18T02:34:50.824Z,0
2017-08-18T02:35:50.781Z,0
2017-08-18T02:36:50.785Z,0
2017-08-18T02:37:50.459Z,0
2017-08-18T02:38:50.758Z,0
2017-08-18T02:39:50.759Z,0
2017-08-18T02:40:50.776Z,0
2017-08-18T02:41:50.747Z,0
2017-08-18T02:42:50.737Z,0
2017-08-18T02:43:50.712Z,0
2017-08-18T02:44:50.711Z,0
2017-08-18T02:45:50.720Z,0
2017-08-18T02:46:50.392Z,0
2017-08-18T02:47:50.691Z,0
2017-08-18T02:48:50.688Z,0
2017-08-18T02:49:50.668Z,0
2017-08-18T02:50:50.661Z,0
2017-08-18T02:51:50.347Z,0
2017-08-18T02:52:50.639Z,0
2017-08-18T02:53:50.358Z,0
2017-08-18T02:54:50.631Z,0
2017-08-18T02:55:50.632Z,0
2017-08-18T02:56:50.621Z,0
2017-08-18T02:57:50.619Z,0
2017-08-18T02:58:50.603Z,0
2017-08-18T02:59:50.591Z,0
2017-08-18T03:00:50.277Z,0
2017-08-18T03:01:50.579Z,0
2017-08-18T03:02:50.573Z,0
2017-08-18T03:03:50.562Z,0
2017-08-18T03:04:50.553Z,0
2017-08-18T03:05:50.540Z,0
2017-08-18T03:06:50.534Z,0
2017-08-18T03:07:50.535Z,0
2017-08-18T03:08:50.525Z,0
2017-08-18T03:09:50.507Z,0
2017-08-18T03:10:50.518Z,0
2017-08-18T03:11:50.493Z,0
2017-08-18T03:12:50.501Z,0
2017-08-18T03:13:50.489Z,0
2017-08-18T03:14:50.471Z,0
2017-08-18T03:15:50.472Z,0
2017-08-18T03:16:50.465Z,0
2017-08-18T03:17:50.456Z,0
2017-08-18T03:18:50.156Z,0
2017-08-18T03:19:50.449Z,0
2017-08-18T03:20:50.430Z,0
2017-08-18T03:21:50.420Z,0
2017-08-18T03:22:50.113Z,0
2017-08-18T03:23:50.414Z,0
2017-08-18T03:24:50.418Z,0
2017-08-18T03:25:50.385Z,0
2017-08-18T03:26:50.078Z,0
2017-08-18T03:27:50.074Z,0
2017-08-18T03:28:50.071Z,0
2017-08-18T03:29:50.361Z,0
2017-08-18T03:30:50.368Z,0
2017-08-18T03:31:50.345Z,0
2017-08-18T03:32:50.332Z,0
2017-08-18T03:33:50.325Z,0
2017-08-18T03:34:50.324Z,0
2017-08-18T03:35:50.310Z,0
2017-08-18T03:36:50.298Z,0
2017-08-18T03:37:50.294Z,0
2017-08-18T03:38:50.299Z,0
2017-08-18T03:39:50.271Z,0
2017-08-18T03:40:50.283Z,0
2017-08-18T03:41:50.269Z,0
2017-08-18T03:42:50.282Z,4
2017-08-18T03:43:50.242Z,4
2017-08-18T03:44:50.239Z,0
2017-08-18T03:45:50.227Z,4
2017-08-18T03:46:50.232Z,4
2017-08-18T03:47:50.199Z,4
2017-08-18T03:48:50.202Z,8
2017-08-18T03:49:49.892Z,8
2017-08-18T03:50:49.889Z,8
2017-08-18T03:51:50.183Z,12
2017-08-18T03:52:49.571Z,12
2017-08-18T03:53:50.148Z,12
2017-08-18T03:54:50.148Z,20
2017-08-18T03:55:50.137Z,24
2017-08-18T03:56:50.029Z,32
2017-08-18T03:57:50.124Z,32
2017-08-18T03:58:50.117Z,44
2017-08-18T03:59:49.808Z,48
2017-08-18T04:00:49.791Z,64
2017-08-18T04:01:50.016Z,76
2017-08-18T04:02:49.475Z,88
2017-08-18T04:03:49.764Z,100
2017-08-18T04:04:50.059Z,104
2017-08-18T04:05:49.752Z,120
2017-08-18T04:06:50.045Z,144
2017-08-18T04:07:50.060Z,156
2017-08-18T04:08:50.029Z,168
2017-08-18T04:09:50.026Z,192
2017-08-18T04:10:50.019Z,232
2017-08-18T04:11:50.009Z,252
2017-08-18T04:12:50.004Z,280
2017-08-18T04:13:50.001Z,332
2017-08-18T04:14:49.998Z,396
2017-08-18T04:15:49.997Z,448
2017-08-18T04:16:49.961Z,504
2017-08-18T04:17:49.958Z,564
2017-08-18T04:18:49.631Z,628
2017-08-18T04:19:49.662Z,696
2017-08-18T04:20:49.941Z,748
2017-08-18T04:21:49.935Z,800
2017-08-18T04:22:49.614Z,852
2017-08-18T04:23:49.909Z,928
2017-08-18T04:24:49.907Z,1036
2017-08-18T04:25:49.891Z,1128
2017-08-18T04:26:49.874Z,1220
2017-08-18T04:27:49.584Z,1380
2017-08-18T04:28:49.558Z,1516
2017-08-18T04:29:49.858Z,1652
2017-08-18T04:30:49.548Z,2048
2017-08-18T04:31:49.842Z,2056
2017-08-18T04:32:49.842Z,1976
2017-08-18T04:34:03.478Z,1960
2017-08-18T04:34:50.030Z,1996
2017-08-18T04:35:49.497Z,2068
2017-08-18T04:36:49.490Z,2308
2017-08-18T04:37:49.789Z,2568
2017-08-18T04:38:49.995Z,2664
2017-08-18T04:39:49.772Z,2636
2017-08-18T04:40:49.466Z,2932
2017-08-18T04:41:49.772Z,2604
2017-08-18T04:42:49.752Z,2352
2017-08-18T04:43:49.743Z,2324
2017-08-18T04:44:49.747Z,2424
2017-08-18T04:45:49.724Z,2700
2017-08-18T04:46:49.727Z,3356
2017-08-18T04:47:49.713Z,4348
2017-08-18T04:48:49.709Z,4616
2017-08-18T04:49:49.703Z,5032
2017-08-18T04:50:49.681Z,5264
2017-08-18T04:51:49.689Z,4896
2017-08-18T04:52:49.676Z,5332
2017-08-18T04:53:49.659Z,5968
2017-08-18T04:54:49.650Z,6844
2017-08-18T04:55:49.637Z,7048
2017-08-18T04:56:49.639Z,7192
2017-08-18T04:57:49.626Z,7328
2017-08-18T04:58:49.630Z,6520
2017-08-18T04:59:49.618Z,7092
2017-08-18T05:00:49.610Z,7916
2017-08-18T05:01:49.604Z,8020
2017-08-18T05:02:49.594Z,8476
2017-08-18T05:03:49.579Z,8284
2017-08-18T05:04:49.573Z,7980
2017-08-18T05:05:49.776Z,8016
2017-08-18T05:06:49.549Z,8476
2017-08-18T05:07:49.558Z,8724
2017-08-18T05:08:49.546Z,9512
2017-08-18T05:09:49.524Z,9636
2017-08-18T05:10:49.522Z,10036
2017-08-18T05:11:49.715Z,11008
2017-08-18T05:12:49.506Z,11492
2017-08-18T05:13:49.490Z,11792
2017-08-18T05:14:49.474Z,12376
2017-08-18T05:15:49.687Z,13108
2017-08-18T05:16:49.685Z,13824
2017-08-18T05:17:49.486Z,12876
2017-08-18T05:18:49.452Z,12300
2017-08-18T05:19:49.657Z,12444
2017-08-18T05:20:49.448Z,12680
2017-08-18T05:21:49.435Z,13168
2017-08-18T05:22:49.436Z,13344
2017-08-18T05:23:49.424Z,13472
2017-08-18T05:24:49.430Z,14364
2017-08-18T05:25:49.443Z,15384
2017-08-18T05:26:49.089Z,15212
2017-08-18T05:27:49.384Z,12204
2017-08-18T05:28:49.392Z,12736
2017-08-18T05:29:49.391Z,15896
2017-08-18T05:30:49.364Z,18464
2017-08-18T05:31:49.057Z,17088
2017-08-18T05:32:49.349Z,15936
2017-08-18T05:33:49.343Z,15520
2017-08-18T05:34:49.039Z,13888
2017-08-18T05:35:49.022Z,14000
2017-08-18T05:36:49.324Z,17888
2017-08-18T05:37:49.021Z,21376
2017-08-18T05:38:49.297Z,23552
2017-08-18T05:39:49.013Z,24736
2017-08-18T05:40:49.302Z,23456
2017-08-18T05:41:49.281Z,21760
2017-08-18T05:42:48.970Z,22144
2017-08-18T05:44:02.895Z,24320
2017-08-18T05:44:49.274Z,27072
2017-08-18T05:45:48.950Z,24992
2017-08-18T05:46:49.243Z,24032
2017-08-18T05:47:49.247Z,23008
2017-08-18T05:48:49.449Z,22912
2017-08-18T05:49:49.434Z,23424
2017-08-18T05:50:49.215Z,25664
2017-08-18T05:51:49.209Z,32128
2017-08-18T05:52:49.202Z,31200
2017-08-18T05:53:49.396Z,29952
2017-08-18T05:54:49.184Z,32704
2017-08-18T05:55:49.192Z,35264
2017-08-18T05:56:49.218Z,34304
2017-08-18T05:57:49.183Z,35008
2017-08-18T05:58:49.164Z,37984
2017-08-18T05:59:49.151Z,33056
2017-08-18T06:00:49.150Z,33408
2017-08-18T06:01:49.166Z,33408
2017-08-18T06:02:49.150Z,30112
2017-08-18T06:03:49.125Z,23168
2017-08-18T06:04:48.821Z,19296
2017-08-18T06:05:49.123Z,18560
2017-08-18T06:06:49.111Z,18400
2017-08-18T06:07:49.114Z,18176
2017-08-18T06:08:49.105Z,17760
2017-08-18T06:09:49.095Z,16948
2017-08-18T06:10:49.082Z,16712
2017-08-18T06:11:49.088Z,16924
2017-08-18T06:12:49.085Z,17632
2017-08-18T06:13:49.077Z,18016
2017-08-18T06:14:49.063Z,18464
2017-08-18T06:15:49.051Z,19168
2017-08-18T06:16:49.054Z,22624
2017-08-18T06:17:49.049Z,20928
2017-08-18T06:18:49.046Z,17760
2017-08-18T06:19:48.736Z,16884
2017-08-18T06:20:49.025Z,16320
2017-08-18T06:21:49.229Z,16616
2017-08-18T06:22:49.031Z,17504
2017-08-18T06:23:49.009Z,19392
2017-08-18T06:24:49.003Z,25664
2017-08-18T06:25:49.004Z,31264
2017-08-18T06:26:48.993Z,27488
2017-08-18T06:27:48.892Z,32768
2017-08-18T06:28:48.973Z,33504
2017-08-18T06:29:48.976Z,40480
2017-08-18T06:30:48.967Z,44224
2017-08-18T06:31:48.966Z,53760
2017-08-18T06:32:48.959Z,50528
2017-08-18T06:33:48.950Z,47840
2017-08-18T06:34:48.663Z,48032
2017-08-18T06:35:48.953Z,45248
2017-08-18T06:36:48.642Z,54560
2017-08-18T06:37:49.130Z,56256
2017-08-18T06:38:48.624Z,54560
2017-08-18T06:39:48.923Z,43744
2017-08-18T06:40:48.913Z,42720
2017-08-18T06:41:48.907Z,40960
2017-08-18T06:42:48.913Z,45504
2017-08-18T06:43:48.615Z,40640
2017-08-18T06:44:48.588Z,46368
2017-08-18T06:45:48.895Z,35680
2017-08-18T06:46:48.882Z,28960
2017-08-18T06:47:48.572Z,26176
2017-08-18T06:48:48.566Z,26624
2017-08-18T06:49:48.881Z,22496
2017-08-18T06:50:48.873Z,21920
2017-08-18T06:51:48.855Z,25472
2017-08-18T06:52:48.860Z,50176
2017-08-18T06:53:48.837Z,53856
2017-08-18T06:54:48.844Z,34208
2017-08-18T06:55:48.827Z,35840
2017-08-18T06:56:48.833Z,42592
2017-08-18T06:57:48.819Z,29152
2017-08-18T06:58:48.806Z,16108
2017-08-18T06:59:48.802Z,15468
2017-08-18T07:00:49.024Z,27872
2017-08-18T07:01:48.815Z,36992
2017-08-18T07:02:48.800Z,26560
2017-08-18T07:03:48.774Z,55328
2017-08-18T07:04:48.782Z,60256
2017-08-18T07:05:49.000Z,57536
2017-08-18T07:06:48.768Z,59424
2017-08-18T07:07:48.773Z,58368
2017-08-18T07:08:48.446Z,64640
2017-08-18T07:09:48.756Z,44608
2017-08-18T07:10:48.430Z,32672
2017-08-18T07:11:48.437Z,32256
2017-08-18T07:12:48.723Z,39136
2017-08-18T07:13:48.723Z,34976
2017-08-18T07:14:48.736Z,33408
2017-08-18T07:15:48.710Z,32416
2017-08-18T07:16:48.708Z,34816
2017-08-18T07:17:48.703Z,38528
2017-08-18T07:18:48.693Z,37024
2017-08-18T07:19:48.698Z,41536
2017-08-18T07:20:48.680Z,37408
2017-08-18T07:21:48.670Z,31936
2017-08-18T07:22:48.678Z,28800
2017-08-18T07:23:48.665Z,26880
2017-08-18T07:24:48.359Z,24608
2017-08-18T07:25:48.653Z,22944
2017-08-18T07:26:48.652Z,21824
2017-08-18T07:27:48.339Z,24576
2017-08-18T07:28:48.628Z,21280
2017-08-18T07:29:48.326Z,20544
2017-08-18T07:30:48.620Z,28288
2017-08-18T07:31:48.622Z,30336
2017-08-18T07:32:48.609Z,34048
2017-08-18T07:33:48.598Z,40192
2017-08-18T07:34:48.595Z,44608
2017-08-18T07:35:48.597Z,43328
2017-08-18T07:36:48.582Z,55360
2017-08-18T07:37:48.568Z,72320
2017-08-18T07:38:48.766Z,71456
2017-08-18T07:39:48.570Z,57792
2017-08-18T07:40:48.552Z,39520
2017-08-18T07:41:48.254Z,52960
2017-08-18T07:43:48.539Z,42368
2017-08-18T07:44:48.229Z,53632
2017-08-18T07:45:48.515Z,71936
2017-08-18T07:46:48.522Z,45952
2017-08-18T07:47:48.219Z,40768
2017-08-18T07:48:48.508Z,40288
2017-08-18T07:49:48.501Z,44704
2017-08-18T07:50:48.193Z,66944
2017-08-18T07:51:48.500Z,61952
2017-08-18T07:52:48.486Z,59360
2017-08-18T07:53:48.466Z,66592
2017-08-18T07:54:48.170Z,71072
2017-08-18T07:55:48.456Z,62208
2017-08-18T07:56:47.857Z,61120
2017-08-18T07:57:48.151Z,60064
2017-08-18T07:58:48.439Z,53120
2017-08-18T07:59:48.137Z,58080
2017-08-18T08:00:48.129Z,63168
2017-08-18T08:01:47.815Z,67168
2017-08-18T08:02:48.116Z,70400
2017-08-18T08:03:48.111Z,72768
2017-08-18T08:04:48.096Z,74272
2017-08-18T08:05:48.095Z,71456
2017-08-18T08:06:48.403Z,71104
2017-08-18T08:07:48.089Z,74848
2017-08-18T08:08:48.088Z,74208
2017-08-18T08:09:48.375Z,76608
2017-08-18T08:10:48.381Z,77248
2017-08-18T08:11:48.383Z,78880
2017-08-18T08:12:48.352Z,77696
2017-08-18T08:13:48.349Z,72384
2017-08-18T08:14:48.352Z,61952
2017-08-18T08:15:48.342Z,61696
2017-08-18T08:16:48.032Z,67488
2017-08-18T08:17:48.336Z,70368
2017-08-18T08:18:48.027Z,78624
2017-08-18T08:19:48.011Z,79776
2017-08-18T08:20:48.009Z,73856
2017-08-18T08:21:48.317Z,77760
2017-08-18T08:22:48.006Z,88768
2017-08-18T08:23:48.003Z,90944
2017-08-18T08:24:47.992Z,87424
2017-08-18T08:25:48.295Z,92192
2017-08-18T08:26:47.983Z,92128
2017-08-18T08:27:47.674Z,87392
2017-08-18T08:28:47.975Z,88448
2017-08-18T08:29:48.278Z,99008
2017-08-18T08:30:47.977Z,94112
2017-08-18T08:31:48.268Z,90496
2017-08-18T08:32:48.259Z,104448
2017-08-18T08:33:47.984Z,98272
2017-08-18T08:34:47.950Z,81760
2017-08-18T08:35:47.932Z,85728
2017-08-18T08:36:48.245Z,105280
2017-08-18T08:37:48.230Z,98176
2017-08-18T08:38:48.244Z,91008
2017-08-18T08:39:48.233Z,97088
2017-08-18T08:40:47.928Z,94912
2017-08-18T08:41:47.928Z,101600
2017-08-18T08:42:48.219Z,101088
2017-08-18T08:43:47.914Z,90784
2017-08-18T08:44:48.207Z,99808
2017-08-18T08:45:47.605Z,106752
2017-08-18T08:46:47.893Z,87520
2017-08-18T08:47:48.200Z,82720
2017-08-18T08:48:48.201Z,95232
2017-08-18T08:49:48.180Z,89088
2017-08-18T08:50:48.185Z,80320
2017-08-18T08:51:48.161Z,95616
2017-08-18T08:52:48.176Z,81728
2017-08-18T08:53:48.165Z,69504
2017-08-18T08:54:48.169Z,72384
2017-08-18T08:55:48.157Z,76960
2017-08-18T08:56:48.168Z,110816
2017-08-18T08:57:48.147Z,110912
2017-08-18T08:58:48.154Z,105568
2017-08-18T08:59:48.148Z,127520
2017-08-18T09:00:48.132Z,128544
2017-08-18T09:01:48.144Z,129248
2017-08-18T09:02:48.126Z,126464
2017-08-18T09:03:48.147Z,102176
2017-08-18T09:04:48.135Z,88640
2017-08-18T09:05:48.106Z,90784
2017-08-18T09:06:47.807Z,97440
2017-08-18T09:07:48.118Z,69056
2017-08-18T09:08:48.105Z,73152
2017-08-18T09:09:48.103Z,68608
2017-08-18T09:10:47.807Z,75584
2017-08-18T09:11:48.094Z,95456
2017-08-18T09:12:48.094Z,94080
2017-08-18T09:13:48.084Z,97728
2017-08-18T09:14:48.067Z,20832
2017-08-18T09:15:48.075Z,21024
2017-08-18T09:16:48.049Z,99744
2017-08-18T09:17:48.061Z,105760
2017-08-18T09:18:48.078Z,102016
2017-08-18T09:19:48.061Z,100512
2017-08-18T09:20:48.041Z,101248
2017-08-18T09:21:48.040Z,104096
2017-08-18T09:22:48.028Z,105824
2017-08-18T09:23:48.013Z,103840
2017-08-18T09:24:48.042Z,100224
2017-08-18T09:25:48.018Z,98400
2017-08-18T09:26:47.721Z,96960
2017-08-18T09:27:47.699Z,96768
2017-08-18T09:28:47.997Z,87328
2017-08-18T09:29:47.995Z,72832
2017-08-18T09:30:48.009Z,65728
2017-08-18T09:31:47.989Z,86080
2017-08-18T09:32:47.974Z,89216
2017-08-18T09:33:47.677Z,89408
2017-08-18T09:34:47.659Z,85856
2017-08-18T09:35:47.649Z,84896
2017-08-18T09:36:47.646Z,84800
2017-08-18T09:37:47.948Z,22848
2017-08-18T09:38:47.952Z,87904
2017-08-18T09:39:47.960Z,88672
2017-08-18T09:40:47.341Z,88096
2017-08-18T09:41:47.633Z,86176
2017-08-18T09:42:47.939Z,84832
2017-08-18T09:43:47.627Z,85312
2017-08-18T09:44:47.929Z,86208
2017-08-18T09:45:47.929Z,86432
2017-08-18T09:46:47.913Z,88800
2017-08-18T09:47:47.901Z,94240
2017-08-18T09:48:47.595Z,92064
2017-08-18T09:49:47.900Z,77952
2017-08-18T09:50:47.897Z,38560
2017-08-18T09:51:47.589Z,80992
2017-08-18T09:52:47.899Z,84352
2017-08-18T09:53:47.887Z,84320
2017-08-18T09:54:47.587Z,85728
2017-08-18T09:55:47.909Z,87552
2017-08-18T09:56:47.571Z,93152
2017-08-18T09:57:47.571Z,97280
2017-08-18T09:58:47.571Z,99680
2017-08-18T09:59:47.873Z,102592
2017-08-18T10:00:47.858Z,93056
2017-08-18T10:01:47.862Z,108256
2017-08-18T10:02:47.856Z,58336
2017-08-18T10:03:47.850Z,61568
2017-08-18T10:04:47.544Z,92160
2017-08-18T10:05:47.843Z,72576
2017-08-18T10:06:47.542Z,98208
2017-08-18T10:07:47.533Z,96608
2017-08-18T10:08:47.526Z,92896
2017-08-18T10:09:47.540Z,59328
2017-08-18T10:10:47.826Z,95040
2017-08-18T10:11:47.519Z,65568
2017-08-18T10:12:47.526Z,81024
2017-08-18T10:13:47.510Z,64320
2017-08-18T10:14:47.519Z,91584
2017-08-18T10:15:47.514Z,94080
2017-08-18T10:16:47.515Z,124224
2017-08-18T10:17:47.504Z,82944
2017-08-18T10:18:47.504Z,107328
2017-08-18T10:19:47.505Z,97600
2017-08-18T10:20:47.481Z,100992
2017-08-18T10:21:47.495Z,102048
2017-08-18T10:22:47.788Z,120960
2017-08-18T10:23:47.485Z,132896
2017-08-18T10:24:47.808Z,137760
2017-08-18T10:25:47.773Z,118720
2017-08-18T10:26:47.791Z,148288
2017-08-18T10:27:47.773Z,150816
2017-08-18T10:28:47.777Z,147296
2017-08-18T10:29:47.767Z,136608
2017-08-18T10:30:47.761Z,134240
2017-08-18T10:31:47.755Z,123328
2017-08-18T10:32:47.756Z,121792
2017-08-18T10:33:47.445Z,108640
2017-08-18T10:34:47.746Z,106976
2017-08-18T10:35:47.727Z,109344
2017-08-18T10:36:47.746Z,108000
2017-08-18T10:37:47.418Z,99040
2017-08-18T10:38:47.755Z,98784
2017-08-18T10:39:47.414Z,109952
2017-08-18T10:40:47.718Z,116000
2017-08-18T10:41:47.723Z,111296
2017-08-18T10:42:47.413Z,105344
2017-08-18T10:43:47.706Z,102048
2017-08-18T10:44:47.402Z,104448
2017-08-18T10:45:47.098Z,110368
2017-08-18T10:46:47.393Z,115296
2017-08-18T10:47:47.710Z,115744
2017-08-18T10:48:47.694Z,111968
2017-08-18T10:49:47.696Z,108480
2017-08-18T10:50:47.396Z,112480
2017-08-18T10:51:47.689Z,114688
2017-08-18T10:52:47.682Z,110720
2017-08-18T10:53:47.377Z,105728
2017-08-18T10:54:47.691Z,96800
2017-08-18T10:55:47.370Z,90624
2017-08-18T10:56:47.369Z,97024
2017-08-18T10:57:47.361Z,99264
2017-08-18T10:58:47.664Z,98272
2017-08-18T10:59:47.352Z,98144
2017-08-18T11:00:47.349Z,103264
2017-08-18T11:01:47.351Z,109088
2017-08-18T11:02:47.348Z,125440
2017-08-18T11:03:47.336Z,135136
2017-08-18T11:04:47.341Z,139008
2017-08-18T11:05:47.325Z,132160
2017-08-18T11:06:47.333Z,123968
2017-08-18T11:07:47.323Z,139264
2017-08-18T11:08:47.637Z,140992
2017-08-18T11:09:47.319Z,154432
2017-08-18T11:10:47.619Z,163456
2017-08-18T11:11:47.316Z,152128
2017-08-18T11:12:47.317Z,147296
2017-08-18T11:13:47.614Z,156160
2017-08-18T11:14:47.603Z,161760
2017-08-18T11:15:47.603Z,144832
2017-08-18T11:16:47.605Z,143744
2017-08-18T11:17:47.604Z,127072
2017-08-18T11:18:47.606Z,108672
2017-08-18T11:19:47.590Z,103616
2017-08-18T11:20:47.594Z,97216
2017-08-18T11:21:47.587Z,96832
2017-08-18T11:22:47.599Z,99392
2017-08-18T11:23:47.278Z,100608
2017-08-18T11:24:47.572Z,38464
2017-08-18T11:25:47.595Z,106272
2017-08-18T11:26:47.576Z,110272
2017-08-18T11:27:47.563Z,113536
2017-08-18T11:28:47.568Z,111840
2017-08-18T11:29:47.559Z,116416
2017-08-18T11:30:47.550Z,113248
2017-08-18T11:31:47.570Z,110816
2017-08-18T11:32:47.554Z,108320
2017-08-18T11:33:47.550Z,108992
2017-08-18T11:34:47.251Z,112128
2017-08-18T11:35:47.549Z,116064
2017-08-18T11:36:47.544Z,117952
2017-08-18T11:37:46.946Z,123424
2017-08-18T11:38:47.533Z,123232
2017-08-18T11:39:47.258Z,120256
2017-08-18T11:40:47.533Z,117344
2017-08-18T11:41:47.539Z,114944
2017-08-18T11:42:47.521Z,112832
2017-08-18T11:43:47.553Z,111072
2017-08-18T11:44:47.520Z,108032
2017-08-18T11:45:47.515Z,107776
2017-08-18T11:46:47.202Z,106560
2017-08-18T11:47:47.495Z,104576
2017-08-18T11:48:47.497Z,102304
2017-08-18T11:49:47.199Z,101440
2017-08-18T11:50:47.504Z,99584
2017-08-18T11:51:47.495Z,99264
2017-08-18T11:52:47.487Z,101856
2017-08-18T11:53:47.481Z,100544
2017-08-18T11:54:47.190Z,99936
2017-08-18T11:55:47.489Z,101152
2017-08-18T11:56:47.175Z,22496
2017-08-18T11:57:47.483Z,28064
2017-08-18T11:58:47.482Z,60896
2017-08-18T11:59:47.480Z,118144
2017-08-18T12:00:47.162Z,108736
2017-08-18T12:01:47.473Z,102816
2017-08-18T12:02:47.465Z,100192
2017-08-18T12:03:47.153Z,103360
2017-08-18T12:04:47.478Z,108384
2017-08-18T12:05:47.471Z,110688
2017-08-18T12:06:47.145Z,110464
2017-08-18T12:07:47.466Z,109632
2017-08-18T12:08:47.456Z,109248
2017-08-18T12:09:47.450Z,108416
2017-08-18T12:10:47.148Z,110208
2017-08-18T12:11:47.439Z,110272
2017-08-18T12:12:47.452Z,111040
2017-08-18T12:13:47.439Z,112384
2017-08-18T12:14:47.441Z,111712
2017-08-18T12:15:47.443Z,110688
2017-08-18T12:16:47.132Z,109056
2017-08-18T12:17:47.139Z,107936
2017-08-18T12:18:47.432Z,106560
2017-08-18T12:19:47.427Z,105056
2017-08-18T12:20:47.423Z,106016
2017-08-18T12:21:47.419Z,106208
2017-08-18T12:22:47.420Z,104480
2017-08-18T12:23:47.420Z,105248
2017-08-18T12:24:47.412Z,105280
2017-08-18T12:25:47.432Z,106496
2017-08-18T12:26:47.414Z,107552
2017-08-18T12:27:47.396Z,103840
2017-08-18T12:28:47.416Z,100640
2017-08-18T12:29:47.402Z,103168
2017-08-18T12:30:47.387Z,103104
2017-08-18T12:31:47.408Z,103776
2017-08-18T12:32:47.400Z,102912
2017-08-18T12:33:47.395Z,100832
2017-08-18T12:34:47.375Z,98176
2017-08-18T12:35:47.395Z,96480
2017-08-18T12:36:47.394Z,94656
2017-08-18T12:37:47.071Z,92128
2017-08-18T12:38:47.085Z,117696
2017-08-18T12:39:47.377Z,153184
2017-08-18T12:40:47.370Z,153056
2017-08-18T12:41:47.371Z,144064
2017-08-18T12:42:47.369Z,148448
2017-08-18T12:43:47.371Z,134528
2017-08-18T12:44:47.389Z,112512
2017-08-18T12:45:47.378Z,102656
2017-08-18T12:46:47.360Z,101184
2017-08-18T12:47:47.618Z,28864
2017-08-18T12:48:47.353Z,106272
2017-08-18T12:49:47.349Z,106784
2017-08-18T12:50:47.357Z,115648
2017-08-18T12:51:47.048Z,124608
2017-08-18T12:52:47.345Z,128800
2017-08-18T12:53:47.350Z,125408
2017-08-18T12:54:47.334Z,117728
2017-08-18T12:55:47.338Z,113024
2017-08-18T12:56:47.347Z,112320
2017-08-18T12:57:47.349Z,116864
2017-08-18T12:58:47.032Z,113856
2017-08-18T12:59:47.023Z,92960
2017-08-18T13:00:47.315Z,116352
2017-08-18T13:01:47.326Z,111712
2017-08-18T13:02:47.025Z,109984
2017-08-18T13:03:47.322Z,112768
2017-08-18T13:04:47.321Z,104736
2017-08-18T13:05:47.009Z,105760
2017-08-18T13:06:47.311Z,104224
2017-08-18T13:07:47.307Z,106560
2017-08-18T13:08:46.989Z,119136
2017-08-18T13:09:47.296Z,125344
2017-08-18T13:10:47.291Z,128352
2017-08-18T13:11:46.988Z,127904
2017-08-18T13:12:46.983Z,123648
2017-08-18T13:13:46.984Z,123392
2017-08-18T13:14:47.295Z,119776
2017-08-18T13:15:47.279Z,49536
2017-08-18T13:16:47.262Z,65568
2017-08-18T13:17:47.276Z,126208
2017-08-18T13:18:47.268Z,117152
2017-08-18T13:19:47.286Z,114560
2017-08-18T13:20:46.957Z,114272
2017-08-18T13:21:47.243Z,115872